sensor_id;sensor_type;location;lat;lon;timestamp;P1;durP1;ratioP1;P2;durP2;ratioP2
23252;SDS011;11795;47.054;15.408;2024-01-15T00:00:09;65.1;;;37.1;;
23252;SDS011;11795;47.054;15.408;2024-01-15T00:02:09;65.1;;;37.1;;
23252;SDS011;11795;47.054;15.408;2024-01-15T00:04:08;66.9;;;37.8;;
23252;SDS011;11795;47.054;15.408;2024-01-15T00:06:08;66.9;;;37.8;;
23252;SDS011;11795;47.054;15.408;2024-01-15T00:08:08;63.3;;;36.2;;
23252;SDS011;11795;47.054;15.408;2024-01-15T00:10:08;63.3;;;36.2;;
23252;SDS011;11795;47.054;15.408;2024-01-15T00:12:08;63.3;;;36.2;;
23252;SDS011;11795;47.054;15.408;2024-01-15T00:14:08;69.8;;;38.7;;
23252;SDS011;11795;47.054;15.408;2024-01-15T00:16:08;69.8;;;38.7;;
23252;SDS011;11795;47.054;15.408;2024-01-15T00:18:08;62.1;;;35.6;;
23252;SDS011;11795;47.054;15.408;2024-01-15T00:20:08;62.1;;;35.6;;
23252;SDS011;11795;47.054;15.408;2024-01-15T00:22:08;62.1;;;35.6;;
23252;SDS011;11795;47.054;15.408;2024-01-15T00:24:08;71.2;;;39.2;;
23252;SDS011;11795;47.054;15.408;2024-01-15T00:26:08;71.2;;;39.2;;
23252;SDS011;11795;47.054;15.408;2024-01-15T00:28:08;61.9;;;35.4;;
23252;SDS011;11795;47.054;15.408;2024-01-15T00:30:09;61.9;;;35.4;;
23252;SDS011;11795;47.054;15.408;2024-01-15T00:32:08;61.9;;;35.4;;
23252;SDS011;11795;47.054;15.408;2024-01-15T00:34:08;70.1;;;38.0;;
23252;SDS011;11795;47.054;15.408;2024-01-15T00:36:08;70.1;;;38.0;;
23252;SDS011;11795;47.054;15.408;2024-01-15T00:38:08;61.1;;;35.8;;
23252;SDS011;11795;47.054;15.408;2024-01-15T00:40:09;61.1;;;35.8;;
23252;SDS011;11795;47.054;15.408;2024-01-15T00:42:08;61.1;;;35.8;;
23252;SDS011;11795;47.054;15.408;2024-01-15T00:44:08;59.6;;;35.4;;
23252;SDS011;11795;47.054;15.408;2024-01-15T00:46:08;59.6;;;35.4;;
23252;SDS011;11795;47.054;15.408;2024-01-15T00:48:08;63.4;;;34.8;;
23252;SDS011;11795;47.054;15.408;2024-01-15T00:50:08;63.4;;;34.8;;
23252;SDS011;11795;47.054;15.408;2024-01-15T00:52:08;63.4;;;34.8;;
23252;SDS011;11795;47.054;15.408;2024-01-15T00:54:08;64.3;;;36.4;;
23252;SDS011;11795;47.054;15.408;2024-01-15T00:56:08;64.3;;;36.4;;
23252;SDS011;11795;47.054;15.408;2024-01-15T00:58:08;62.6;;;35.6;;
23252;SDS011;11795;47.054;15.408;2024-01-15T01:00:08;62.6;;;35.6;;
23252;SDS011;11795;47.054;15.408;2024-01-15T01:02:08;62.6;;;35.6;;
23252;SDS011;11795;47.054;15.408;2024-01-15T01:04:08;62.3;;;35.1;;
23252;SDS011;11795;47.054;15.408;2024-01-15T01:06:09;62.3;;;35.1;;
23252;SDS011;11795;47.054;15.408;2024-01-15T01:08:08;63.4;;;36.4;;
23252;SDS011;11795;47.054;15.408;2024-01-15T01:10:08;63.4;;;36.4;;
23252;SDS011;11795;47.054;15.408;2024-01-15T01:12:08;63.4;;;36.4;;
23252;SDS011;11795;47.054;15.408;2024-01-15T01:14:08;64.7;;;35.9;;
23252;SDS011;11795;47.054;15.408;2024-01-15T01:16:08;64.7;;;35.9;;
23252;SDS011;11795;47.054;15.408;2024-01-15T01:18:08;60.9;;;35.2;;
23252;SDS011;11795;47.054;15.408;2024-01-15T01:20:10;60.9;;;35.2;;
23252;SDS011;11795;47.054;15.408;2024-01-15T01:22:09;60.9;;;35.2;;
23252;SDS011;11795;47.054;15.408;2024-01-15T01:24:08;67.5;;;37.4;;
23252;SDS011;11795;47.054;15.408;2024-01-15T01:26:08;67.5;;;37.4;;
23252;SDS011;11795;47.054;15.408;2024-01-15T01:28:08;69.5;;;38.0;;
23252;SDS011;11795;47.054;15.408;2024-01-15T01:30:08;69.5;;;38.0;;
23252;SDS011;11795;47.054;15.408;2024-01-15T01:32:08;69.5;;;38.0;;
23252;SDS011;11795;47.054;15.408;2024-01-15T01:34:08;61.4;;;36.0;;
23252;SDS011;11795;47.054;15.408;2024-01-15T01:36:08;61.4;;;36.0;;
23252;SDS011;11795;47.054;15.408;2024-01-15T01:38:08;76.0;;;40.3;;
23252;SDS011;11795;47.054;15.408;2024-01-15T01:40:08;76.0;;;40.3;;
23252;SDS011;11795;47.054;15.408;2024-01-15T01:42:08;76.0;;;40.3;;
23252;SDS011;11795;47.054;15.408;2024-01-15T01:44:08;76.4;;;39.0;;
23252;SDS011;11795;47.054;15.408;2024-01-15T01:46:08;76.4;;;39.0;;
23252;SDS011;11795;47.054;15.408;2024-01-15T01:48:08;70.6;;;38.2;;
23252;SDS011;11795;47.054;15.408;2024-01-15T01:50:08;70.6;;;38.2;;
23252;SDS011;11795;47.054;15.408;2024-01-15T01:52:08;70.6;;;38.2;;
23252;SDS011;11795;47.054;15.408;2024-01-15T01:54:08;73.8;;;38.4;;
23252;SDS011;11795;47.054;15.408;2024-01-15T01:56:08;73.8;;;38.4;;
23252;SDS011;11795;47.054;15.408;2024-01-15T01:58:08;70.2;;;36.8;;
23252;SDS011;11795;47.054;15.408;2024-01-15T02:00:09;70.2;;;36.8;;
23252;SDS011;11795;47.054;15.408;2024-01-15T02:02:08;70.2;;;36.8;;
23252;SDS011;11795;47.054;15.408;2024-01-15T02:04:08;62.4;;;35.5;;
23252;SDS011;11795;47.054;15.408;2024-01-15T02:06:08;62.4;;;35.5;;
23252;SDS011;11795;47.054;15.408;2024-01-15T02:08:08;64.1;;;35.8;;
23252;SDS011;11795;47.054;15.408;2024-01-15T02:10:10;64.1;;;35.8;;
23252;SDS011;11795;47.054;15.408;2024-01-15T02:12:08;64.1;;;35.8;;
23252;SDS011;11795;47.054;15.408;2024-01-15T02:14:08;69.1;;;37.6;;
23252;SDS011;11795;47.054;15.408;2024-01-15T02:16:08;69.1;;;37.6;;
23252;SDS011;11795;47.054;15.408;2024-01-15T02:18:08;71.5;;;39.5;;
23252;SDS011;11795;47.054;15.408;2024-01-15T02:22:08;71.5;;;39.5;;
23252;SDS011;11795;47.054;15.408;2024-01-15T02:24:08;68.0;;;36.7;;
23252;SDS011;11795;47.054;15.408;2024-01-15T02:26:08;68.0;;;36.7;;
23252;SDS011;11795;47.054;15.408;2024-01-15T02:28:09;67.8;;;36.8;;
23252;SDS011;11795;47.054;15.408;2024-01-15T02:30:08;67.8;;;36.8;;
23252;SDS011;11795;47.054;15.408;2024-01-15T02:32:08;67.8;;;36.8;;
23252;SDS011;11795;47.054;15.408;2024-01-15T02:34:08;65.4;;;35.5;;
23252;SDS011;11795;47.054;15.408;2024-01-15T02:36:08;65.4;;;35.5;;
23252;SDS011;11795;47.054;15.408;2024-01-15T02:38:08;68.2;;;36.6;;
23252;SDS011;11795;47.054;15.408;2024-01-15T02:40:08;68.2;;;36.6;;
23252;SDS011;11795;47.054;15.408;2024-01-15T02:42:08;68.2;;;36.6;;
23252;SDS011;11795;47.054;15.408;2024-01-15T02:44:08;69.6;;;36.9;;
23252;SDS011;11795;47.054;15.408;2024-01-15T02:46:08;69.6;;;36.9;;
23252;SDS011;11795;47.054;15.408;2024-01-15T02:48:08;68.2;;;36.4;;
23252;SDS011;11795;47.054;15.408;2024-01-15T02:50:08;68.2;;;36.4;;
23252;SDS011;11795;47.054;15.408;2024-01-15T02:52:08;68.2;;;36.4;;
23252;SDS011;11795;47.054;15.408;2024-01-15T02:54:08;66.7;;;35.1;;
23252;SDS011;11795;47.054;15.408;2024-01-15T02:56:08;66.7;;;35.1;;
23252;SDS011;11795;47.054;15.408;2024-01-15T02:58:08;63.6;;;35.9;;
23252;SDS011;11795;47.054;15.408;2024-01-15T03:00:08;63.6;;;35.9;;
23252;SDS011;11795;47.054;15.408;2024-01-15T03:02:08;63.6;;;35.9;;
23252;SDS011;11795;47.054;15.408;2024-01-15T03:04:08;67.9;;;36.8;;
23252;SDS011;11795;47.054;15.408;2024-01-15T03:06:08;67.9;;;36.8;;
23252;SDS011;11795;47.054;15.408;2024-01-15T03:08:08;69.1;;;36.9;;
23252;SDS011;11795;47.054;15.408;2024-01-15T03:10:08;69.1;;;36.9;;
23252;SDS011;11795;47.054;15.408;2024-01-15T03:12:08;69.1;;;36.9;;
23252;SDS011;11795;47.054;15.408;2024-01-15T03:14:08;64.6;;;35.0;;
23252;SDS011;11795;47.054;15.408;2024-01-15T03:16:08;64.6;;;35.0;;
23252;SDS011;11795;47.054;15.408;2024-01-15T03:18:08;64.5;;;35.6;;
23252;SDS011;11795;47.054;15.408;2024-01-15T03:20:08;64.5;;;35.6;;
23252;SDS011;11795;47.054;15.408;2024-01-15T03:22:08;64.5;;;35.6;;
23252;SDS011;11795;47.054;15.408;2024-01-15T03:24:08;71.3;;;37.3;;
23252;SDS011;11795;47.054;15.408;2024-01-15T03:26:08;71.3;;;37.3;;
23252;SDS011;11795;47.054;15.408;2024-01-15T03:28:08;57.5;;;33.5;;
23252;SDS011;11795;47.054;15.408;2024-01-15T03:30:08;57.5;;;33.5;;
23252;SDS011;11795;47.054;15.408;2024-01-15T03:32:08;57.5;;;33.5;;
23252;SDS011;11795;47.054;15.408;2024-01-15T03:34:08;65.6;;;35.3;;
23252;SDS011;11795;47.054;15.408;2024-01-15T03:36:08;65.6;;;35.3;;
23252;SDS011;11795;47.054;15.408;2024-01-15T03:38:08;57.3;;;31.4;;
23252;SDS011;11795;47.054;15.408;2024-01-15T03:40:09;57.3;;;31.4;;
23252;SDS011;11795;47.054;15.408;2024-01-15T03:42:08;57.3;;;31.4;;
23252;SDS011;11795;47.054;15.408;2024-01-15T03:44:08;68.4;;;36.7;;
23252;SDS011;11795;47.054;15.408;2024-01-15T03:46:08;68.4;;;36.7;;
23252;SDS011;11795;47.054;15.408;2024-01-15T03:48:08;65.0;;;35.5;;
23252;SDS011;11795;47.054;15.408;2024-01-15T03:50:08;65.0;;;35.5;;
23252;SDS011;11795;47.054;15.408;2024-01-15T03:52:08;65.0;;;35.5;;
23252;SDS011;11795;47.054;15.408;2024-01-15T03:54:08;68.1;;;36.3;;
23252;SDS011;11795;47.054;15.408;2024-01-15T03:56:08;68.1;;;36.3;;
23252;SDS011;11795;47.054;15.408;2024-01-15T03:58:08;69.6;;;36.4;;
23252;SDS011;11795;47.054;15.408;2024-01-15T04:00:09;69.6;;;36.4;;
23252;SDS011;11795;47.054;15.408;2024-01-15T04:02:08;69.6;;;36.4;;
23252;SDS011;11795;47.054;15.408;2024-01-15T04:04:08;69.9;;;37.4;;
23252;SDS011;11795;47.054;15.408;2024-01-15T04:06:08;69.9;;;37.4;;
23252;SDS011;11795;47.054;15.408;2024-01-15T04:08:08;69.2;;;37.2;;
23252;SDS011;11795;47.054;15.408;2024-01-15T04:10:08;69.2;;;37.2;;
23252;SDS011;11795;47.054;15.408;2024-01-15T04:12:08;69.2;;;37.2;;
23252;SDS011;11795;47.054;15.408;2024-01-15T04:14:08;65.3;;;37.1;;
23252;SDS011;11795;47.054;15.408;2024-01-15T04:16:08;65.3;;;37.1;;
23252;SDS011;11795;47.054;15.408;2024-01-15T04:18:08;62.1;;;35.6;;
23252;SDS011;11795;47.054;15.408;2024-01-15T04:20:08;62.1;;;35.6;;
23252;SDS011;11795;47.054;15.408;2024-01-15T04:22:08;62.1;;;35.6;;
23252;SDS011;11795;47.054;15.408;2024-01-15T04:24:08;62.1;;;34.4;;
23252;SDS011;11795;47.054;15.408;2024-01-15T04:26:08;62.1;;;34.4;;
23252;SDS011;11795;47.054;15.408;2024-01-15T04:28:08;60.4;;;35.1;;
23252;SDS011;11795;47.054;15.408;2024-01-15T04:30:09;60.4;;;35.1;;
23252;SDS011;11795;47.054;15.408;2024-01-15T04:32:08;60.4;;;35.1;;
23252;SDS011;11795;47.054;15.408;2024-01-15T04:34:08;59.3;;;33.6;;
23252;SDS011;11795;47.054;15.408;2024-01-15T04:36:09;59.3;;;33.6;;
23252;SDS011;11795;47.054;15.408;2024-01-15T04:38:08;52.7;;;30.2;;
23252;SDS011;11795;47.054;15.408;2024-01-15T04:40:09;52.7;;;30.2;;
23252;SDS011;11795;47.054;15.408;2024-01-15T04:42:08;52.7;;;30.2;;
23252;SDS011;11795;47.054;15.408;2024-01-15T04:44:08;55.3;;;32.4;;
23252;SDS011;11795;47.054;15.408;2024-01-15T04:46:09;55.3;;;32.4;;
23252;SDS011;11795;47.054;15.408;2024-01-15T04:48:08;52.1;;;30.9;;
23252;SDS011;11795;47.054;15.408;2024-01-15T04:50:08;52.1;;;30.9;;
23252;SDS011;11795;47.054;15.408;2024-01-15T04:52:08;52.1;;;30.9;;
23252;SDS011;11795;47.054;15.408;2024-01-15T04:54:08;55.7;;;31.8;;
23252;SDS011;11795;47.054;15.408;2024-01-15T04:56:08;55.7;;;31.8;;
23252;SDS011;11795;47.054;15.408;2024-01-15T04:58:08;55.1;;;31.4;;
23252;SDS011;11795;47.054;15.408;2024-01-15T05:00:09;55.1;;;31.4;;
23252;SDS011;11795;47.054;15.408;2024-01-15T05:02:09;55.1;;;31.4;;
23252;SDS011;11795;47.054;15.408;2024-01-15T05:04:08;57.4;;;31.8;;
23252;SDS011;11795;47.054;15.408;2024-01-15T05:06:08;57.4;;;31.8;;
23252;SDS011;11795;47.054;15.408;2024-01-15T05:08:08;55.7;;;32.8;;
23252;SDS011;11795;47.054;15.408;2024-01-15T05:10:08;55.7;;;32.8;;
23252;SDS011;11795;47.054;15.408;2024-01-15T05:12:08;55.7;;;32.8;;
23252;SDS011;11795;47.054;15.408;2024-01-15T05:14:08;55.7;;;32.0;;
23252;SDS011;11795;47.054;15.408;2024-01-15T05:16:08;55.7;;;32.0;;
23252;SDS011;11795;47.054;15.408;2024-01-15T05:18:08;54.4;;;32.3;;
23252;SDS011;11795;47.054;15.408;2024-01-15T05:20:09;54.4;;;32.3;;
23252;SDS011;11795;47.054;15.408;2024-01-15T05:22:08;54.4;;;32.3;;
23252;SDS011;11795;47.054;15.408;2024-01-15T05:24:08;51.2;;;30.3;;
23252;SDS011;11795;47.054;15.408;2024-01-15T05:26:08;51.2;;;30.3;;
23252;SDS011;11795;47.054;15.408;2024-01-15T05:30:08;51.8;;;31.6;;
23252;SDS011;11795;47.054;15.408;2024-01-15T05:32:08;51.8;;;31.6;;
23252;SDS011;11795;47.054;15.408;2024-01-15T05:34:08;57.8;;;33.5;;
23252;SDS011;11795;47.054;15.408;2024-01-15T05:36:08;57.8;;;33.5;;
23252;SDS011;11795;47.054;15.408;2024-01-15T05:38:08;55.5;;;32.9;;
23252;SDS011;11795;47.054;15.408;2024-01-15T05:40:09;55.5;;;32.9;;
23252;SDS011;11795;47.054;15.408;2024-01-15T05:42:08;55.5;;;32.9;;
23252;SDS011;11795;47.054;15.408;2024-01-15T05:44:08;53.7;;;32.2;;
23252;SDS011;11795;47.054;15.408;2024-01-15T05:46:08;53.7;;;32.2;;
23252;SDS011;11795;47.054;15.408;2024-01-15T05:48:08;49.7;;;30.2;;
23252;SDS011;11795;47.054;15.408;2024-01-15T05:50:08;49.7;;;30.2;;
23252;SDS011;11795;47.054;15.408;2024-01-15T05:52:08;49.7;;;30.2;;
23252;SDS011;11795;47.054;15.408;2024-01-15T05:54:08;49.2;;;30.2;;
23252;SDS011;11795;47.054;15.408;2024-01-15T05:56:08;49.2;;;30.2;;
23252;SDS011;11795;47.054;15.408;2024-01-15T05:58:08;54.6;;;31.5;;
23252;SDS011;11795;47.054;15.408;2024-01-15T06:00:08;54.6;;;31.5;;
23252;SDS011;11795;47.054;15.408;2024-01-15T06:02:08;54.6;;;31.5;;
23252;SDS011;11795;47.054;15.408;2024-01-15T06:04:08;54.0;;;31.1;;
23252;SDS011;11795;47.054;15.408;2024-01-15T06:06:08;54.0;;;31.1;;
23252;SDS011;11795;47.054;15.408;2024-01-15T06:08:08;55.6;;;32.5;;
23252;SDS011;11795;47.054;15.408;2024-01-15T06:10:08;55.6;;;32.5;;
23252;SDS011;11795;47.054;15.408;2024-01-15T06:12:08;55.6;;;32.5;;
23252;SDS011;11795;47.054;15.408;2024-01-15T06:14:08;52.1;;;31.4;;
23252;SDS011;11795;47.054;15.408;2024-01-15T06:16:13;52.1;;;31.4;;
23252;SDS011;11795;47.054;15.408;2024-01-15T06:18:08;56.7;;;32.3;;
23252;SDS011;11795;47.054;15.408;2024-01-15T06:20:09;56.7;;;32.3;;
23252;SDS011;11795;47.054;15.408;2024-01-15T06:22:08;56.7;;;32.3;;
23252;SDS011;11795;47.054;15.408;2024-01-15T06:24:08;51.9;;;31.7;;
23252;SDS011;11795;47.054;15.408;2024-01-15T06:26:08;51.9;;;31.7;;
23252;SDS011;11795;47.054;15.408;2024-01-15T06:28:09;68.0;;;37.2;;
23252;SDS011;11795;47.054;15.408;2024-01-15T06:30:09;68.0;;;37.2;;
23252;SDS011;11795;47.054;15.408;2024-01-15T06:32:08;68.0;;;37.2;;
23252;SDS011;11795;47.054;15.408;2024-01-15T06:34:08;61.4;;;36.3;;
23252;SDS011;11795;47.054;15.408;2024-01-15T06:36:08;61.4;;;36.3;;
23252;SDS011;11795;47.054;15.408;2024-01-15T06:38:08;60.3;;;33.6;;
23252;SDS011;11795;47.054;15.408;2024-01-15T06:40:09;60.3;;;33.6;;
23252;SDS011;11795;47.054;15.408;2024-01-15T06:42:08;60.3;;;33.6;;
23252;SDS011;11795;47.054;15.408;2024-01-15T06:44:08;62.0;;;34.5;;
23252;SDS011;11795;47.054;15.408;2024-01-15T06:46:08;62.0;;;34.5;;
23252;SDS011;11795;47.054;15.408;2024-01-15T06:48:08;58.6;;;34.0;;
23252;SDS011;11795;47.054;15.408;2024-01-15T06:50:10;58.6;;;34.0;;
23252;SDS011;11795;47.054;15.408;2024-01-15T06:52:08;58.6;;;34.0;;
23252;SDS011;11795;47.054;15.408;2024-01-15T06:54:08;65.5;;;39.2;;
23252;SDS011;11795;47.054;15.408;2024-01-15T06:56:09;65.5;;;39.2;;
23252;SDS011;11795;47.054;15.408;2024-01-15T06:58:08;59.5;;;36.2;;
23252;SDS011;11795;47.054;15.408;2024-01-15T07:00:12;59.5;;;36.2;;
23252;SDS011;11795;47.054;15.408;2024-01-15T07:02:08;59.5;;;36.2;;
23252;SDS011;11795;47.054;15.408;2024-01-15T07:04:08;60.9;;;37.1;;
23252;SDS011;11795;47.054;15.408;2024-01-15T07:06:08;60.9;;;37.1;;
23252;SDS011;11795;47.054;15.408;2024-01-15T07:08:08;63.9;;;36.9;;
23252;SDS011;11795;47.054;15.408;2024-01-15T07:10:08;63.9;;;36.9;;
23252;SDS011;11795;47.054;15.408;2024-01-15T07:12:08;63.9;;;36.9;;
23252;SDS011;11795;47.054;15.408;2024-01-15T07:14:08;59.0;;;34.4;;
23252;SDS011;11795;47.054;15.408;2024-01-15T07:16:08;59.0;;;34.4;;
23252;SDS011;11795;47.054;15.408;2024-01-15T07:18:08;62.9;;;36.4;;
23252;SDS011;11795;47.054;15.408;2024-01-15T07:20:08;62.9;;;36.4;;
23252;SDS011;11795;47.054;15.408;2024-01-15T07:22:08;62.9;;;36.4;;
23252;SDS011;11795;47.054;15.408;2024-01-15T07:24:08;62.1;;;35.9;;
23252;SDS011;11795;47.054;15.408;2024-01-15T07:26:09;62.1;;;35.9;;
23252;SDS011;11795;47.054;15.408;2024-01-15T07:28:08;61.8;;;35.0;;
23252;SDS011;11795;47.054;15.408;2024-01-15T07:30:10;61.8;;;35.0;;
23252;SDS011;11795;47.054;15.408;2024-01-15T07:32:08;61.8;;;35.0;;
23252;SDS011;11795;47.054;15.408;2024-01-15T07:34:08;61.1;;;35.4;;
23252;SDS011;11795;47.054;15.408;2024-01-15T07:36:08;61.1;;;35.4;;
23252;SDS011;11795;47.054;15.408;2024-01-15T07:38:08;62.6;;;36.7;;
23252;SDS011;11795;47.054;15.408;2024-01-15T07:40:10;62.6;;;36.7;;
23252;SDS011;11795;47.054;15.408;2024-01-15T07:42:08;62.6;;;36.7;;
23252;SDS011;11795;47.054;15.408;2024-01-15T07:44:08;60.9;;;36.8;;
23252;SDS011;11795;47.054;15.408;2024-01-15T07:46:08;60.9;;;36.8;;
23252;SDS011;11795;47.054;15.408;2024-01-15T07:48:08;60.0;;;34.8;;
23252;SDS011;11795;47.054;15.408;2024-01-15T07:50:08;60.0;;;34.8;;
23252;SDS011;11795;47.054;15.408;2024-01-15T07:52:09;60.0;;;34.8;;
23252;SDS011;11795;47.054;15.408;2024-01-15T07:54:08;56.4;;;33.8;;
23252;SDS011;11795;47.054;15.408;2024-01-15T07:56:08;56.4;;;33.8;;
23252;SDS011;11795;47.054;15.408;2024-01-15T07:58:08;58.8;;;34.1;;
23252;SDS011;11795;47.054;15.408;2024-01-15T08:00:09;58.8;;;34.1;;
23252;SDS011;11795;47.054;15.408;2024-01-15T08:02:08;58.8;;;34.1;;
23252;SDS011;11795;47.054;15.408;2024-01-15T08:04:08;60.2;;;33.2;;
23252;SDS011;11795;47.054;15.408;2024-01-15T08:06:08;60.2;;;33.2;;
23252;SDS011;11795;47.054;15.408;2024-01-15T08:08:08;55.9;;;32.8;;
23252;SDS011;11795;47.054;15.408;2024-01-15T08:10:08;55.9;;;32.8;;
23252;SDS011;11795;47.054;15.408;2024-01-15T08:12:10;55.9;;;32.8;;
23252;SDS011;11795;47.054;15.408;2024-01-15T08:14:08;59.4;;;32.9;;
23252;SDS011;11795;47.054;15.408;2024-01-15T08:16:08;59.4;;;32.9;;
23252;SDS011;11795;47.054;15.408;2024-01-15T08:18:08;54.3;;;32.6;;
23252;SDS011;11795;47.054;15.408;2024-01-15T08:20:09;54.3;;;32.6;;
23252;SDS011;11795;47.054;15.408;2024-01-15T08:22:08;54.3;;;32.6;;
23252;SDS011;11795;47.054;15.408;2024-01-15T08:24:08;52.2;;;31.3;;
23252;SDS011;11795;47.054;15.408;2024-01-15T08:26:08;52.2;;;31.3;;
23252;SDS011;11795;47.054;15.408;2024-01-15T08:28:08;47.0;;;28.9;;
23252;SDS011;11795;47.054;15.408;2024-01-15T08:30:09;47.0;;;28.9;;
23252;SDS011;11795;47.054;15.408;2024-01-15T08:32:08;47.0;;;28.9;;
23252;SDS011;11795;47.054;15.408;2024-01-15T08:34:09;55.9;;;32.5;;
23252;SDS011;11795;47.054;15.408;2024-01-15T08:36:08;55.9;;;32.5;;
23252;SDS011;11795;47.054;15.408;2024-01-15T08:38:08;55.9;;;32.9;;
23252;SDS011;11795;47.054;15.408;2024-01-15T08:40:09;55.9;;;32.9;;
23252;SDS011;11795;47.054;15.408;2024-01-15T08:42:08;55.9;;;32.9;;
23252;SDS011;11795;47.054;15.408;2024-01-15T08:44:08;56.2;;;33.1;;
23252;SDS011;11795;47.054;15.408;2024-01-15T08:46:08;56.2;;;33.1;;
23252;SDS011;11795;47.054;15.408;2024-01-15T08:48:08;53.5;;;31.8;;
23252;SDS011;11795;47.054;15.408;2024-01-15T08:50:08;53.5;;;31.8;;
23252;SDS011;11795;47.054;15.408;2024-01-15T08:52:08;53.5;;;31.8;;
23252;SDS011;11795;47.054;15.408;2024-01-15T08:54:08;53.9;;;31.7;;
23252;SDS011;11795;47.054;15.408;2024-01-15T08:56:10;53.9;;;31.7;;
23252;SDS011;11795;47.054;15.408;2024-01-15T08:58:08;53.0;;;31.9;;
23252;SDS011;11795;47.054;15.408;2024-01-15T09:00:12;53.0;;;31.9;;
23252;SDS011;11795;47.054;15.408;2024-01-15T09:02:08;53.0;;;31.9;;
23252;SDS011;11795;47.054;15.408;2024-01-15T09:04:08;49.9;;;31.6;;
23252;SDS011;11795;47.054;15.408;2024-01-15T09:06:08;49.9;;;31.6;;
23252;SDS011;11795;47.054;15.408;2024-01-15T09:08:08;47.9;;;29.4;;
23252;SDS011;11795;47.054;15.408;2024-01-15T09:10:08;47.9;;;29.4;;
23252;SDS011;11795;47.054;15.408;2024-01-15T09:12:08;47.9;;;29.4;;
23252;SDS011;11795;47.054;15.408;2024-01-15T09:14:08;46.8;;;29.7;;
23252;SDS011;11795;47.054;15.408;2024-01-15T09:16:08;46.8;;;29.7;;
23252;SDS011;11795;47.054;15.408;2024-01-15T09:18:09;44.1;;;28.3;;
23252;SDS011;11795;47.054;15.408;2024-01-15T09:20:09;44.1;;;28.3;;
23252;SDS011;11795;47.054;15.408;2024-01-15T09:22:08;44.1;;;28.3;;
23252;SDS011;11795;47.054;15.408;2024-01-15T09:24:08;46.6;;;28.4;;
23252;SDS011;11795;47.054;15.408;2024-01-15T09:26:08;46.6;;;28.4;;
23252;SDS011;11795;47.054;15.408;2024-01-15T09:28:08;37.1;;;26.4;;
23252;SDS011;11795;47.054;15.408;2024-01-15T09:30:09;37.1;;;26.4;;
23252;SDS011;11795;47.054;15.408;2024-01-15T09:32:08;37.1;;;26.4;;
23252;SDS011;11795;47.054;15.408;2024-01-15T09:34:08;39.2;;;26.4;;
23252;SDS011;11795;47.054;15.408;2024-01-15T09:36:08;39.2;;;26.4;;
23252;SDS011;11795;47.054;15.408;2024-01-15T09:38:09;38.6;;;25.2;;
23252;SDS011;11795;47.054;15.408;2024-01-15T09:40:08;38.6;;;25.2;;
23252;SDS011;11795;47.054;15.408;2024-01-15T09:42:08;38.6;;;25.2;;
23252;SDS011;11795;47.054;15.408;2024-01-15T09:44:08;38.0;;;25.5;;
23252;SDS011;11795;47.054;15.408;2024-01-15T09:46:08;38.0;;;25.5;;
23252;SDS011;11795;47.054;15.408;2024-01-15T09:48:08;37.2;;;25.0;;
23252;SDS011;11795;47.054;15.408;2024-01-15T09:50:08;37.2;;;25.0;;
23252;SDS011;11795;47.054;15.408;2024-01-15T09:52:08;37.2;;;25.0;;
23252;SDS011;11795;47.054;15.408;2024-01-15T09:54:08;34.5;;;23.5;;
23252;SDS011;11795;47.054;15.408;2024-01-15T09:56:09;34.5;;;23.5;;
23252;SDS011;11795;47.054;15.408;2024-01-15T09:58:08;31.4;;;21.8;;
23252;SDS011;11795;47.054;15.408;2024-01-15T10:00:08;31.4;;;21.8;;
23252;SDS011;11795;47.054;15.408;2024-01-15T10:02:08;31.4;;;21.8;;
23252;SDS011;11795;47.054;15.408;2024-01-15T10:04:08;33.7;;;22.9;;
23252;SDS011;11795;47.054;15.408;2024-01-15T10:06:08;33.7;;;22.9;;
23252;SDS011;11795;47.054;15.408;2024-01-15T10:08:08;25.7;;;17.9;;
23252;SDS011;11795;47.054;15.408;2024-01-15T10:10:09;25.7;;;17.9;;
23252;SDS011;11795;47.054;15.408;2024-01-15T10:12:09;25.7;;;17.9;;
23252;SDS011;11795;47.054;15.408;2024-01-15T10:14:08;15.8;;;12.6;;
23252;SDS011;11795;47.054;15.408;2024-01-15T10:16:08;15.8;;;12.6;;
23252;SDS011;11795;47.054;15.408;2024-01-15T10:18:08;15.7;;;11.1;;
23252;SDS011;11795;47.054;15.408;2024-01-15T10:20:09;15.7;;;11.1;;
23252;SDS011;11795;47.054;15.408;2024-01-15T10:22:08;15.7;;;11.1;;
23252;SDS011;11795;47.054;15.408;2024-01-15T10:24:08;12.7;;;9.8;;
23252;SDS011;11795;47.054;15.408;2024-01-15T10:26:08;12.7;;;9.8;;
23252;SDS011;11795;47.054;15.408;2024-01-15T10:28:08;11.0;;;8.5;;
23252;SDS011;11795;47.054;15.408;2024-01-15T10:30:09;11.0;;;8.5;;
23252;SDS011;11795;47.054;15.408;2024-01-15T10:32:08;11.0;;;8.5;;
23252;SDS011;11795;47.054;15.408;2024-01-15T10:34:10;11.3;;;8.2;;
23252;SDS011;11795;47.054;15.408;2024-01-15T10:36:09;11.3;;;8.2;;
23252;SDS011;11795;47.054;15.408;2024-01-15T10:38:09;9.8;;;7.2;;
23252;SDS011;11795;47.054;15.408;2024-01-15T10:40:09;9.8;;;7.2;;
23252;SDS011;11795;47.054;15.408;2024-01-15T10:42:08;9.8;;;7.2;;
23252;SDS011;11795;47.054;15.408;2024-01-15T10:44:08;9.4;;;7.3;;
23252;SDS011;11795;47.054;15.408;2024-01-15T10:46:08;9.4;;;7.3;;
23252;SDS011;11795;47.054;15.408;2024-01-15T10:48:08;9.7;;;7.8;;
23252;SDS011;11795;47.054;15.408;2024-01-15T10:50:10;9.7;;;7.8;;
23252;SDS011;11795;47.054;15.408;2024-01-15T11:14:10;10.9;;;8.1;;
23252;SDS011;11795;47.054;15.408;2024-01-15T11:16:09;10.9;;;8.1;;
23252;SDS011;11795;47.054;15.408;2024-01-15T11:18:09;9.7;;;7.7;;
23252;SDS011;11795;47.054;15.408;2024-01-15T11:20:08;9.7;;;7.7;;
23252;SDS011;11795;47.054;15.408;2024-01-15T11:22:10;9.7;;;7.7;;
23252;SDS011;11795;47.054;15.408;2024-01-15T11:24:10;9.9;;;8.0;;
23252;SDS011;11795;47.054;15.408;2024-01-15T11:28:08;10.4;;;8.4;;
23252;SDS011;11795;47.054;15.408;2024-01-15T11:30:09;10.4;;;8.4;;
23252;SDS011;11795;47.054;15.408;2024-01-15T11:32:09;10.4;;;8.4;;
23252;SDS011;11795;47.054;15.408;2024-01-15T11:34:10;14.0;;;9.7;;
23252;SDS011;11795;47.054;15.408;2024-01-15T11:36:08;14.0;;;9.7;;
23252;SDS011;11795;47.054;15.408;2024-01-15T11:38:09;14.5;;;9.8;;
23252;SDS011;11795;47.054;15.408;2024-01-15T11:40:08;14.5;;;9.8;;
23252;SDS011;11795;47.054;15.408;2024-01-15T11:42:09;14.5;;;9.8;;
23252;SDS011;11795;47.054;15.408;2024-01-15T11:44:08;14.1;;;9.6;;
23252;SDS011;11795;47.054;15.408;2024-01-15T11:46:10;14.1;;;9.6;;
23252;SDS011;11795;47.054;15.408;2024-01-15T11:48:10;12.1;;;9.5;;
23252;SDS011;11795;47.054;15.408;2024-01-15T11:50:09;12.1;;;9.5;;
23252;SDS011;11795;47.054;15.408;2024-01-15T11:52:08;12.1;;;9.5;;
23252;SDS011;11795;47.054;15.408;2024-01-15T11:54:09;15.9;;;9.9;;
23252;SDS011;11795;47.054;15.408;2024-01-15T11:56:10;15.9;;;9.9;;
23252;SDS011;11795;47.054;15.408;2024-01-15T11:58:09;13.8;;;10.1;;
23252;SDS011;11795;47.054;15.408;2024-01-15T12:00:08;13.8;;;10.1;;
23252;SDS011;11795;47.054;15.408;2024-01-15T12:02:08;13.8;;;10.1;;
23252;SDS011;11795;47.054;15.408;2024-01-15T12:04:08;11.8;;;9.5;;
23252;SDS011;11795;47.054;15.408;2024-01-15T12:06:08;11.8;;;9.5;;
23252;SDS011;11795;47.054;15.408;2024-01-15T12:08:14;13.4;;;9.3;;
23252;SDS011;11795;47.054;15.408;2024-01-15T12:10:08;13.4;;;9.3;;
23252;SDS011;11795;47.054;15.408;2024-01-15T12:12:09;13.4;;;9.3;;
23252;SDS011;11795;47.054;15.408;2024-01-15T12:14:08;10.2;;;8.3;;
23252;SDS011;11795;47.054;15.408;2024-01-15T12:16:08;10.2;;;8.3;;
23252;SDS011;11795;47.054;15.408;2024-01-15T12:18:09;14.1;;;9.5;;
23252;SDS011;11795;47.054;15.408;2024-01-15T12:20:08;14.1;;;9.5;;